sensor_id;sensor_type;location;lat;lon;timestamp;temperature;humidity
15259;DHT22;34462;51.368;12.364;2023-02-15T00:00:15;2.10;99.90
15259;DHT22;34462;51.368;12.364;2023-02-15T00:02:44;2.00;99.90
15259;DHT22;34462;51.368;12.364;2023-02-15T00:05:14;2.00;99.90
15259;DHT22;34462;51.368;12.364;2023-02-15T00:07:42;2.00;99.90
15259;DHT22;34462;51.368;12.364;2023-02-15T00:10:10;2.00;99.90
15259;DHT22;34462;51.368;12.364;2023-02-15T00:12:38;2.00;99.90
15259;DHT22;34462;51.368;12.364;2023-02-15T00:15:07;2.00;99.90
15259;DHT22;34462;51.368;12.364;2023-02-15T00:17:35;1.90;99.90
15259;DHT22;34462;51.368;12.364;2023-02-15T00:20:05;1.90;99.90
15259;DHT22;34462;51.368;12.364;2023-02-15T00:22:35;1.90;99.90
15259;DHT22;34462;51.368;12.364;2023-02-15T00:25:04;2.00;99.90
15259;DHT22;34462;51.368;12.364;2023-02-15T00:27:33;1.90;99.90
15259;DHT22;34462;51.368;12.364;2023-02-15T00:30:01;1.80;99.90
15259;DHT22;34462;51.368;12.364;2023-02-15T00:32:30;1.80;99.90
15259;DHT22;34462;51.368;12.364;2023-02-15T00:34:58;1.80;99.90
15259;DHT22;34462;51.368;12.364;2023-02-15T00:37:26;1.80;99.90
15259;DHT22;34462;51.368;12.364;2023-02-15T00:39:56;1.70;99.90
15259;DHT22;34462;51.368;12.364;2023-02-15T00:42:24;1.70;99.90
15259;DHT22;34462;51.368;12.364;2023-02-15T00:44:52;1.70;99.90
15259;DHT22;34462;51.368;12.364;2023-02-15T00:47:20;1.70;99.90
15259;DHT22;34462;51.368;12.364;2023-02-15T00:49:49;1.60;99.90
15259;DHT22;34462;51.368;12.364;2023-02-15T00:52:17;1.70;99.90
15259;DHT22;34462;51.368;12.364;2023-02-15T00:54:45;1.60;99.90
15259;DHT22;34462;51.368;12.364;2023-02-15T00:57:14;1.60;99.90
15259;DHT22;34462;51.368;12.364;2023-02-15T00:59:42;1.60;99.90
15259;DHT22;34462;51.368;12.364;2023-02-15T01:02:11;1.60;99.90
15259;DHT22;34462;51.368;12.364;2023-02-15T01:04:39;1.70;99.90
15259;DHT22;34462;51.368;12.364;2023-02-15T01:07:07;1.70;99.90
15259;DHT22;34462;51.368;12.364;2023-02-15T01:09:35;1.70;99.90
15259;DHT22;34462;51.368;12.364;2023-02-15T01:12:04;1.70;99.90
15259;DHT22;34462;51.368;12.364;2023-02-15T01:14:33;1.70;99.90
15259;DHT22;34462;51.368;12.364;2023-02-15T01:17:01;1.60;99.90
15259;DHT22;34462;51.368;12.364;2023-02-15T01:19:30;1.60;99.90
15259;DHT22;34462;51.368;12.364;2023-02-15T01:21:58;1.60;99.90
15259;DHT22;34462;51.368;12.364;2023-02-15T01:24:26;1.50;99.90
15259;DHT22;34462;51.368;12.364;2023-02-15T01:26:54;1.40;99.90
15259;DHT22;34462;51.368;12.364;2023-02-15T01:29:22;1.40;99.90
15259;DHT22;34462;51.368;12.364;2023-02-15T01:31:51;1.40;99.90
15259;DHT22;34462;51.368;12.364;2023-02-15T01:34:20;1.40;99.90
15259;DHT22;34462;51.368;12.364;2023-02-15T01:36:48;1.30;99.90
15259;DHT22;34462;51.368;12.364;2023-02-15T01:39:16;1.30;99.90
15259;DHT22;34462;51.368;12.364;2023-02-15T01:41:44;1.30;99.90
15259;DHT22;34462;51.368;12.364;2023-02-15T01:44:45;1.30;99.90
15259;DHT22;34462;51.368;12.364;2023-02-15T01:47:22;1.40;99.90
15259;DHT22;34462;51.368;12.364;2023-02-15T01:50:00;1.50;99.90
15259;DHT22;34462;51.368;12.364;2023-02-15T01:52:37;1.50;99.90
15259;DHT22;34462;51.368;12.364;2023-02-15T01:55:12;1.50;99.90
15259;DHT22;34462;51.368;12.364;2023-02-15T01:57:42;1.50;99.90
15259;DHT22;34462;51.368;12.364;2023-02-15T02:00:13;1.50;99.90
15259;DHT22;34462;51.368;12.364;2023-02-15T02:02:46;1.50;99.90
15259;DHT22;34462;51.368;12.364;2023-02-15T02:05:17;1.50;99.90
15259;DHT22;34462;51.368;12.364;2023-02-15T02:07:46;1.50;99.90
15259;DHT22;34462;51.368;12.364;2023-02-15T02:10:20;1.50;99.90
15259;DHT22;34462;51.368;12.364;2023-02-15T02:12:52;1.40;99.90
15259;DHT22;34462;51.368;12.364;2023-02-15T02:15:30;1.40;99.90
15259;DHT22;34462;51.368;12.364;2023-02-15T02:18:17;1.40;99.90
15259;DHT22;34462;51.368;12.364;2023-02-15T02:21:19;1.40;99.90
15259;DHT22;34462;51.368;12.364;2023-02-15T02:24:23;1.40;99.90
15259;DHT22;34462;51.368;12.364;2023-02-15T02:27:24;1.40;99.90
15259;DHT22;34462;51.368;12.364;2023-02-15T02:30:24;1.30;99.90
15259;DHT22;34462;51.368;12.364;2023-02-15T02:33:33;1.40;99.90
15259;DHT22;34462;51.368;12.364;2023-02-15T02:36:15;1.40;99.90
15259;DHT22;34462;51.368;12.364;2023-02-15T02:39:04;1.40;99.90
15259;DHT22;34462;51.368;12.364;2023-02-15T02:41:44;1.40;99.90
15259;DHT22;34462;51.368;12.364;2023-02-15T02:44:26;1.40;99.90
15259;DHT22;34462;51.368;12.364;2023-02-15T02:47:02;1.40;99.90
15259;DHT22;34462;51.368;12.364;2023-02-15T02:49:37;1.40;99.90
15259;DHT22;34462;51.368;12.364;2023-02-15T02:52:34;1.30;99.90
15259;DHT22;34462;51.368;12.364;2023-02-15T02:55:08;1.20;99.90
15259;DHT22;34462;51.368;12.364;2023-02-15T02:57:46;1.20;99.90
15259;DHT22;34462;51.368;12.364;2023-02-15T03:00:22;1.20;99.90
15259;DHT22;34462;51.368;12.364;2023-02-15T03:02:56;1.10;99.90
15259;DHT22;34462;51.368;12.364;2023-02-15T03:05:35;1.10;99.90
15259;DHT22;34462;51.368;12.364;2023-02-15T03:08:08;1.20;99.90
15259;DHT22;34462;51.368;12.364;2023-02-15T03:10:39;1.20;99.90
15259;DHT22;34462;51.368;12.364;2023-02-15T03:13:09;1.10;99.90
15259;DHT22;34462;51.368;12.364;2023-02-15T03:15:39;1.10;99.90
15259;DHT22;34462;51.368;12.364;2023-02-15T03:18:31;1.20;99.90
15259;DHT22;34462;51.368;12.364;2023-02-15T03:21:05;1.20;99.90
15259;DHT22;34462;51.368;12.364;2023-02-15T03:23:37;1.30;99.90
15259;DHT22;34462;51.368;12.364;2023-02-15T03:26:07;1.30;99.90
15259;DHT22;34462;51.368;12.364;2023-02-15T03:28:42;1.30;99.90
15259;DHT22;34462;51.368;12.364;2023-02-15T03:31:15;1.30;99.90
15259;DHT22;34462;51.368;12.364;2023-02-15T03:33:52;1.30;99.90
15259;DHT22;34462;51.368;12.364;2023-02-15T03:36:29;1.40;99.90
15259;DHT22;34462;51.368;12.364;2023-02-15T03:39:09;1.40;99.90
15259;DHT22;34462;51.368;12.364;2023-02-15T03:41:48;1.40;99.90
15259;DHT22;34462;51.368;12.364;2023-02-15T03:44:27;1.40;99.90
15259;DHT22;34462;51.368;12.364;2023-02-15T03:47:01;1.50;99.90
15259;DHT22;34462;51.368;12.364;2023-02-15T03:49:39;1.50;99.90
15259;DHT22;34462;51.368;12.364;2023-02-15T03:52:14;1.50;99.90
15259;DHT22;34462;51.368;12.364;2023-02-15T03:54:43;1.50;99.90
15259;DHT22;34462;51.368;12.364;2023-02-15T03:57:18;1.40;99.90
15259;DHT22;34462;51.368;12.364;2023-02-15T04:00:11;1.30;99.90
15259;DHT22;34462;51.368;12.364;2023-02-15T04:03:18;1.30;99.90
15259;DHT22;34462;51.368;12.364;2023-02-15T04:05:53;1.20;99.90
15259;DHT22;34462;51.368;12.364;2023-02-15T04:08:23;1.20;99.90
15259;DHT22;34462;51.368;12.364;2023-02-15T04:11:11;1.20;99.90
15259;DHT22;34462;51.368;12.364;2023-02-15T04:13:38;1.20;99.90
15259;DHT22;34462;51.368;12.364;2023-02-15T04:16:07;1.10;99.90
15259;DHT22;34462;51.368;12.364;2023-02-15T04:18:36;1.10;99.90
15259;DHT22;34462;51.368;12.364;2023-02-15T04:21:25;1.10;99.90
15259;DHT22;34462;51.368;12.364;2023-02-15T04:24:13;1.10;99.90
15259;DHT22;34462;51.368;12.364;2023-02-15T04:26:59;1.20;99.90
15259;DHT22;34462;51.368;12.364;2023-02-15T04:29:29;1.10;99.90
15259;DHT22;34462;51.368;12.364;2023-02-15T04:32:00;1.00;99.90
15259;DHT22;34462;51.368;12.364;2023-02-15T04:34:29;1.00;99.90
15259;DHT22;34462;51.368;12.364;2023-02-15T04:36:57;1.10;99.90
15259;DHT22;34462;51.368;12.364;2023-02-15T04:39:26;1.10;99.90
15259;DHT22;34462;51.368;12.364;2023-02-15T04:41:55;1.10;99.90
15259;DHT22;34462;51.368;12.364;2023-02-15T04:44:23;1.20;99.90
15259;DHT22;34462;51.368;12.364;2023-02-15T04:46:51;1.30;99.90
15259;DHT22;34462;51.368;12.364;2023-02-15T04:49:19;1.30;99.90
15259;DHT22;34462;51.368;12.364;2023-02-15T04:51:47;1.30;99.90
15259;DHT22;34462;51.368;12.364;2023-02-15T04:54:15;1.30;99.90
15259;DHT22;34462;51.368;12.364;2023-02-15T04:56:45;1.20;99.90
15259;DHT22;34462;51.368;12.364;2023-02-15T04:59:13;1.20;99.90
15259;DHT22;34462;51.368;12.364;2023-02-15T05:01:41;1.10;99.90
15259;DHT22;34462;51.368;12.364;2023-02-15T05:04:10;1.00;99.90
15259;DHT22;34462;51.368;12.364;2023-02-15T05:06:38;1.00;99.90
15259;DHT22;34462;51.368;12.364;2023-02-15T05:09:06;1.00;99.90
15259;DHT22;34462;51.368;12.364;2023-02-15T05:11:34;1.00;99.90
15259;DHT22;34462;51.368;12.364;2023-02-15T05:14:04;0.90;99.90
15259;DHT22;34462;51.368;12.364;2023-02-15T05:16:33;0.90;99.90
15259;DHT22;34462;51.368;12.364;2023-02-15T05:19:01;0.90;99.90
15259;DHT22;34462;51.368;12.364;2023-02-15T05:21:30;0.80;99.90
15259;DHT22;34462;51.368;12.364;2023-02-15T05:23:59;0.90;99.90
15259;DHT22;34462;51.368;12.364;2023-02-15T05:26:47;0.90;99.90
15259;DHT22;34462;51.368;12.364;2023-02-15T05:29:34;0.90;99.90
15259;DHT22;34462;51.368;12.364;2023-02-15T05:32:02;0.80;99.90
15259;DHT22;34462;51.368;12.364;2023-02-15T05:34:31;0.80;99.90
15259;DHT22;34462;51.368;12.364;2023-02-15T05:36:59;0.80;99.90
15259;DHT22;34462;51.368;12.364;2023-02-15T05:39:27;0.80;99.90
15259;DHT22;34462;51.368;12.364;2023-02-15T05:41:58;0.70;99.90
15259;DHT22;34462;51.368;12.364;2023-02-15T05:44:26;0.70;99.90
15259;DHT22;34462;51.368;12.364;2023-02-15T05:46:56;0.70;99.90
15259;DHT22;34462;51.368;12.364;2023-02-15T05:49:24;0.70;99.90
15259;DHT22;34462;51.368;12.364;2023-02-15T05:51:52;0.80;99.90
15259;DHT22;34462;51.368;12.364;2023-02-15T05:54:20;0.80;99.90
15259;DHT22;34462;51.368;12.364;2023-02-15T05:56:49;0.80;99.90
15259;DHT22;34462;51.368;12.364;2023-02-15T05:59:17;0.80;99.90
15259;DHT22;34462;51.368;12.364;2023-02-15T06:01:45;0.80;99.90
15259;DHT22;34462;51.368;12.364;2023-02-15T06:04:15;0.80;99.90
15259;DHT22;34462;51.368;12.364;2023-02-15T06:06:43;0.80;99.90
15259;DHT22;34462;51.368;12.364;2023-02-15T06:09:12;0.80;99.90
15259;DHT22;34462;51.368;12.364;2023-02-15T06:11:41;0.60;99.90
15259;DHT22;34462;51.368;12.364;2023-02-15T06:14:09;0.80;99.90
15259;DHT22;34462;51.368;12.364;2023-02-15T06:16:37;0.90;99.90
15259;DHT22;34462;51.368;12.364;2023-02-15T06:19:05;0.90;99.90
15259;DHT22;34462;51.368;12.364;2023-02-15T06:21:35;0.80;99.90
15259;DHT22;34462;51.368;12.364;2023-02-15T06:24:03;0.90;99.90
15259;DHT22;34462;51.368;12.364;2023-02-15T06:26:31;0.90;99.90
15259;DHT22;34462;51.368;12.364;2023-02-15T06:29:00;0.90;99.90
15259;DHT22;34462;51.368;12.364;2023-02-15T06:31:28;0.90;99.90
15259;DHT22;34462;51.368;12.364;2023-02-15T06:33:56;0.90;99.90
15259;DHT22;34462;51.368;12.364;2023-02-15T06:36:27;0.90;99.90
15259;DHT22;34462;51.368;12.364;2023-02-15T06:38:57;1.00;99.90
15259;DHT22;34462;51.368;12.364;2023-02-15T06:41:25;1.00;99.90
15259;DHT22;34462;51.368;12.364;2023-02-15T06:43:54;1.00;99.90
15259;DHT22;34462;51.368;12.364;2023-02-15T06:46:22;1.00;99.90
15259;DHT22;34462;51.368;12.364;2023-02-15T06:48:50;1.10;99.90
15259;DHT22;34462;51.368;12.364;2023-02-15T06:51:18;1.10;99.90
15259;DHT22;34462;51.368;12.364;2023-02-15T06:53:46;1.10;99.90
15259;DHT22;34462;51.368;12.364;2023-02-15T06:56:16;1.10;99.90
15259;DHT22;34462;51.368;12.364;2023-02-15T06:58:44;1.10;99.90
15259;DHT22;34462;51.368;12.364;2023-02-15T07:01:12;1.10;99.90
15259;DHT22;34462;51.368;12.364;2023-02-15T07:03:41;1.10;99.90
15259;DHT22;34462;51.368;12.364;2023-02-15T07:06:09;1.20;99.90
15259;DHT22;34462;51.368;12.364;2023-02-15T07:08:38;1.10;99.90
15259;DHT22;34462;51.368;12.364;2023-02-15T07:11:07;1.20;99.90
15259;DHT22;34462;51.368;12.364;2023-02-15T07:13:54;1.10;99.90
15259;DHT22;34462;51.368;12.364;2023-02-15T07:16:22;1.20;99.90
15259;DHT22;34462;51.368;12.364;2023-02-15T07:18:50;1.30;99.90
15259;DHT22;34462;51.368;12.364;2023-02-15T07:21:18;1.40;99.90
15259;DHT22;34462;51.368;12.364;2023-02-15T07:23:46;1.40;99.90
15259;DHT22;34462;51.368;12.364;2023-02-15T07:26:14;1.50;99.90
15259;DHT22;34462;51.368;12.364;2023-02-15T07:28:42;1.60;99.90
15259;DHT22;34462;51.368;12.364;2023-02-15T07:31:12;1.60;99.90
15259;DHT22;34462;51.368;12.364;2023-02-15T07:33:40;1.70;99.90
15259;DHT22;34462;51.368;12.364;2023-02-15T07:36:09;1.70;99.90
15259;DHT22;34462;51.368;12.364;2023-02-15T07:38:40;1.80;99.90
15259;DHT22;34462;51.368;12.364;2023-02-15T07:41:11;1.90;99.90
15259;DHT22;34462;51.368;12.364;2023-02-15T07:43:42;2.00;99.90
15259;DHT22;34462;51.368;12.364;2023-02-15T07:46:14;2.10;99.90
15259;DHT22;34462;51.368;12.364;2023-02-15T07:48:44;2.30;99.90
15259;DHT22;34462;51.368;12.364;2023-02-15T07:51:13;2.40;99.90
15259;DHT22;34462;51.368;12.364;2023-02-15T07:53:42;2.50;99.90
15259;DHT22;34462;51.368;12.364;2023-02-15T07:56:13;2.60;99.90
15259;DHT22;34462;51.368;12.364;2023-02-15T07:58:41;2.60;99.90
15259;DHT22;34462;51.368;12.364;2023-02-15T08:01:22;2.80;99.90
15259;DHT22;34462;51.368;12.364;2023-02-15T08:03:52;2.90;99.90
15259;DHT22;34462;51.368;12.364;2023-02-15T08:06:21;3.10;99.90
15259;DHT22;34462;51.368;12.364;2023-02-15T08:08:51;3.10;99.90
15259;DHT22;34462;51.368;12.364;2023-02-15T08:11:21;3.00;99.90
15259;DHT22;34462;51.368;12.364;2023-02-15T08:13:56;3.00;99.90
15259;DHT22;34462;51.368;12.364;2023-02-15T08:16:30;3.00;99.90
15259;DHT22;34462;51.368;12.364;2023-02-15T08:19:02;3.10;99.90
15259;DHT22;34462;51.368;12.364;2023-02-15T08:21:34;3.20;99.90
15259;DHT22;34462;51.368;12.364;2023-02-15T08:24:05;3.40;99.90
15259;DHT22;34462;51.368;12.364;2023-02-15T08:26:34;3.30;99.90
15259;DHT22;34462;51.368;12.364;2023-02-15T08:29:03;3.40;99.90
15259;DHT22;34462;51.368;12.364;2023-02-15T08:31:33;3.50;99.90
15259;DHT22;34462;51.368;12.364;2023-02-15T08:34:04;3.60;99.90
15259;DHT22;34462;51.368;12.364;2023-02-15T08:36:33;3.70;99.90
15259;DHT22;34462;51.368;12.364;2023-02-15T08:39:04;3.70;99.90
15259;DHT22;34462;51.368;12.364;2023-02-15T08:41:34;3.80;99.90
15259;DHT22;34462;51.368;12.364;2023-02-15T08:44:05;4.00;99.90
15259;DHT22;34462;51.368;12.364;2023-02-15T08:46:38;4.10;99.90
15259;DHT22;34462;51.368;12.364;2023-02-15T08:49:09;4.10;99.90
15259;DHT22;34462;51.368;12.364;2023-02-15T08:51:39;4.10;99.90
15259;DHT22;34462;51.368;12.364;2023-02-15T08:54:09;4.20;99.90
15259;DHT22;34462;51.368;12.364;2023-02-15T08:56:40;4.30;99.90
15259;DHT22;34462;51.368;12.364;2023-02-15T08:59:13;4.40;99.90
15259;DHT22;34462;51.368;12.364;2023-02-15T09:01:46;4.30;99.90
15259;DHT22;34462;51.368;12.364;2023-02-15T09:04:16;4.50;99.90
15259;DHT22;34462;51.368;12.364;2023-02-15T09:06:46;4.60;99.90
15259;DHT22;34462;51.368;12.364;2023-02-15T09:09:16;4.60;99.90
15259;DHT22;34462;51.368;12.364;2023-02-15T09:11:47;4.70;99.90
15259;DHT22;34462;51.368;12.364;2023-02-15T09:14:21;4.70;99.90
15259;DHT22;34462;51.368;12.364;2023-02-15T09:16:53;4.80;99.90
15259;DHT22;34462;51.368;12.364;2023-02-15T09:19:22;4.90;99.90
15259;DHT22;34462;51.368;12.364;2023-02-15T09:21:52;5.00;99.90
15259;DHT22;34462;51.368;12.364;2023-02-15T09:24:21;5.00;99.90
15259;DHT22;34462;51.368;12.364;2023-02-15T09:26:49;5.20;99.90
15259;DHT22;34462;51.368;12.364;2023-02-15T09:29:18;5.30;99.90
15259;DHT22;34462;51.368;12.364;2023-02-15T09:31:53;5.60;99.90
15259;DHT22;34462;51.368;12.364;2023-02-15T09:34:22;5.70;99.90
15259;DHT22;34462;51.368;12.364;2023-02-15T09:36:51;5.80;99.90
15259;DHT22;34462;51.368;12.364;2023-02-15T09:39:22;5.80;99.90
15259;DHT22;34462;51.368;12.364;2023-02-15T09:42:24;5.90;99.90
15259;DHT22;34462;51.368;12.364;2023-02-15T09:45:20;6.00;99.90
15259;DHT22;34462;51.368;12.364;2023-02-15T09:48:16;6.20;99.90
15259;DHT22;34462;51.368;12.364;2023-02-15T09:51:25;6.20;99.90
15259;DHT22;34462;51.368;12.364;2023-02-15T09:54:38;6.30;99.90
15259;DHT22;34462;51.368;12.364;2023-02-15T09:57:24;6.20;99.90
15259;DHT22;34462;51.368;12.364;2023-02-15T10:00:07;6.30;99.90
15259;DHT22;34462;51.368;12.364;2023-02-15T10:03:05;6.40;99.90
15259;DHT22;34462;51.368;12.364;2023-02-15T10:06:05;6.50;99.90
15259;DHT22;34462;51.368;12.364;2023-02-15T10:09:07;6.60;99.90
15259;DHT22;34462;51.368;12.364;2023-02-15T10:12:09;6.60;99.90
15259;DHT22;34462;51.368;12.364;2023-02-15T10:15:00;6.70;99.90
15259;DHT22;34462;51.368;12.364;2023-02-15T10:18:05;6.80;99.90
15259;DHT22;34462;51.368;12.364;2023-02-15T10:20:55;7.00;99.90
15259;DHT22;34462;51.368;12.364;2023-02-15T10:23:49;6.90;99.90
15259;DHT22;34462;51.368;12.364;2023-02-15T10:26:30;7.10;99.90
15259;DHT22;34462;51.368;12.364;2023-02-15T10:29:08;7.20;99.90
15259;DHT22;34462;51.368;12.364;2023-02-15T10:31:48;7.20;99.90
15259;DHT22;34462;51.368;12.364;2023-02-15T10:34:26;7.20;99.90
15259;DHT22;34462;51.368;12.364;2023-02-15T10:37:16;7.40;99.90
15259;DHT22;34462;51.368;12.364;2023-02-15T10:40:08;7.50;99.90
15259;DHT22;34462;51.368;12.364;2023-02-15T10:43:04;7.60;99.90
15259;DHT22;34462;51.368;12.364;2023-02-15T10:45:53;7.70;99.90
15259;DHT22;34462;51.368;12.364;2023-02-15T10:49:00;7.90;99.90
15259;DHT22;34462;51.368;12.364;2023-02-15T10:52:09;8.10;99.90
15259;DHT22;34462;51.368;12.364;2023-02-15T10:55:02;8.20;99.90
15259;DHT22;34462;51.368;12.364;2023-02-15T10:57:44;8.30;99.90
15259;DHT22;34462;51.368;12.364;2023-02-15T11:00:30;8.40;99.90
15259;DHT22;34462;51.368;12.364;2023-02-15T11:03:22;8.40;99.90
15259;DHT22;34462;51.368;12.364;2023-02-15T11:06:03;8.40;99.90
15259;DHT22;34462;51.368;12.364;2023-02-15T11:08:40;8.40;99.90
15259;DHT22;34462;51.368;12.364;2023-02-15T11:11:15;8.30;99.90
15259;DHT22;34462;51.368;12.364;2023-02-15T11:13:52;8.30;99.90
15259;DHT22;34462;51.368;12.364;2023-02-15T11:16:26;8.30;99.90
15259;DHT22;34462;51.368;12.364;2023-02-15T11:19:01;8.40;99.90
15259;DHT22;34462;51.368;12.364;2023-02-15T11:21:39;8.40;99.90
15259;DHT22;34462;51.368;12.364;2023-02-15T11:24:14;8.50;99.90
15259;DHT22;34462;51.368;12.364;2023-02-15T11:26:51;8.50;99.90
15259;DHT22;34462;51.368;12.364;2023-02-15T11:29:29;8.60;99.90
15259;DHT22;34462;51.368;12.364;2023-02-15T11:32:04;8.60;99.90
15259;DHT22;34462;51.368;12.364;2023-02-15T11:34:49;8.60;99.90
15259;DHT22;34462;51.368;12.364;2023-02-15T11:37:25;8.60;99.90
15259;DHT22;34462;51.368;12.364;2023-02-15T11:40:02;8.70;99.90
15259;DHT22;34462;51.368;12.364;2023-02-15T11:42:47;8.80;99.90
15259;DHT22;34462;51.368;12.364;2023-02-15T11:45:22;8.80;99.90
15259;DHT22;34462;51.368;12.364;2023-02-15T11:47:55;8.80;99.90
15259;DHT22;34462;51.368;12.364;2023-02-15T11:50:26;8.90;99.90
15259;DHT22;34462;51.368;12.364;2023-02-15T11:52:59;8.90;99.90
15259;DHT22;34462;51.368;12.364;2023-02-15T11:55:31;8.90;99.90
15259;DHT22;34462;51.368;12.364;2023-02-15T11:58:05;8.90;99.90
15259;DHT22;34462;51.368;12.364;2023-02-15T12:01:11;8.90;99.90
15259;DHT22;34462;51.368;12.364;2023-02-15T12:03:46;8.80;99.90
15259;DHT22;34462;51.368;12.364;2023-02-15T12:06:21;8.90;99.90
15259;DHT22;34462;51.368;12.364;2023-02-15T12:08:59;8.90;99.90
15259;DHT22;34462;51.368;12.364;2023-02-15T12:11:35;9.00;99.90
15259;DHT22;34462;51.368;12.364;2023-02-15T12:14:06;9.00;99.90
15259;DHT22;34462;51.368;12.364;2023-02-15T12:16:42;9.00;99.90
15259;DHT22;34462;51.368;12.364;2023-02-15T12:19:26;9.00;99.90
15259;DHT22;34462;51.368;12.364;2023-02-15T12:21:59;9.10;99.90
15259;DHT22;34462;51.368;12.364;2023-02-15T12:24:35;9.10;99.90
15259;DHT22;34462;51.368;12.364;2023-02-15T12:27:15;9.20;99.90
15259;DHT22;34462;51.368;12.364;2023-02-15T12:29:48;9.30;99.90
15259;DHT22;34462;51.368;12.364;2023-02-15T12:32:22;9.40;99.90
15259;DHT22;34462;51.368;12.364;2023-02-15T12:34:56;9.50;99.90
15259;DHT22;34462;51.368;12.364;2023-02-15T12:37:31;9.60;99.90
15259;DHT22;34462;51.368;12.364;2023-02-15T12:40:04;9.60;99.90
15259;DHT22;34462;51.368;12.364;2023-02-15T12:42:49;9.60;99.90
15259;DHT22;34462;51.368;12.364;2023-02-15T12:45:23;9.70;99.90
15259;DHT22;34462;51.368;12.364;2023-02-15T12:48:09;9.60;99.90
15259;DHT22;34462;51.368;12.364;2023-02-15T12:50:48;9.60;99.90
15259;DHT22;34462;51.368;12.364;2023-02-15T12:53:22;9.70;99.90
15259;DHT22;34462;51.368;12.364;2023-02-15T12:55:59;9.80;99.90
15259;DHT22;34462;51.368;12.364;2023-02-15T12:58:30;9.90;99.90
15259;DHT22;34462;51.368;12.364;2023-02-15T13:01:15;10.20;99.90
15259;DHT22;34462;51.368;12.364;2023-02-15T13:03:57;10.90;99.90
15259;DHT22;34462;51.368;12.364;2023-02-15T13:06:28;11.60;99.90
15259;DHT22;34462;51.368;12.364;2023-02-15T13:09:07;12.00;99.90
15259;DHT22;34462;51.368;12.364;2023-02-15T13:12:15;12.30;99.90
15259;DHT22;34462;51.368;12.364;2023-02-15T13:14:56;12.00;99.90
15259;DHT22;34462;51.368;12.364;2023-02-15T13:17:27;11.60;99.90
15259;DHT22;34462;51.368;12.364;2023-02-15T13:20:00;11.30;99.90
15259;DHT22;34462;51.368;12.364;2023-02-15T13:22:39;11.10;99.90
15259;DHT22;34462;51.368;12.364;2023-02-15T13:25:14;10.90;99.90
15259;DHT22;34462;51.368;12.364;2023-02-15T13:27:50;10.70;99.90
15259;DHT22;34462;51.368;12.364;2023-02-15T13:30:28;10.70;99.90
15259;DHT22;34462;51.368;12.364;2023-02-15T13:33:04;10.60;99.90
15259;DHT22;34462;51.368;12.364;2023-02-15T13:35:39;10.60;99.90
15259;DHT22;34462;51.368;12.364;2023-02-15T13:41:27;10.50;99.90
15259;DHT22;34462;51.368;12.364;2023-02-15T13:44:10;10.50;99.90
15259;DHT22;34462;51.368;12.364;2023-02-15T13:46:59;10.60;99.90
15259;DHT22;34462;51.368;12.364;2023-02-15T13:49:47;10.50;99.90
15259;DHT22;34462;51.368;12.364;2023-02-15T13:52:24;10.50;99.90
15259;DHT22;34462;51.368;12.364;2023-02-15T13:55:11;10.50;99.90
15259;DHT22;34462;51.368;12.364;2023-02-15T14:01:18;10.50;99.90
15259;DHT22;34462;51.368;12.364;2023-02-15T14:04:07;10.40;99.90
15259;DHT22;34462;51.368;12.364;2023-02-15T14:07:08;10.40;99.90
15259;DHT22;34462;51.368;12.364;2023-02-15T14:10:06;10.40;99.90
15259;DHT22;34462;51.368;12.364;2023-02-15T14:13:01;10.40;99.90
15259;DHT22;34462;51.368;12.364;2023-02-15T14:15:44;10.40;99.90
15259;DHT22;34462;51.368;12.364;2023-02-15T14:18:23;10.40;99.90
15259;DHT22;34462;51.368;12.364;2023-02-15T14:21:05;10.40;99.90
15259;DHT22;34462;51.368;12.364;2023-02-15T14:23:56;10.30;99.90
15259;DHT22;34462;51.368;12.364;2023-02-15T14:26:42;10.30;99.90
15259;DHT22;34462;51.368;12.364;2023-02-15T14:29:25;10.20;99.90
15259;DHT22;34462;51.368;12.364;2023-02-15T14:32:16;10.20;99.90
15259;DHT22;34462;51.368;12.364;2023-02-15T14:34:53;10.10;99.90
15259;DHT22;34462;51.368;12.364;2023-02-15T14:37:35;10.10;99.90
15259;DHT22;34462;51.368;12.364;2023-02-15T14:40:16;10.10;99.90
15259;DHT22;34462;51.368;12.364;2023-02-15T14:43:15;10.10;99.90
15259;DHT22;34462;51.368;12.364;2023-02-15T14:45:54;10.10;99.90
15259;DHT22;34462;51.368;12.364;2023-02-15T14:48:28;10.10;99.90
15259;DHT22;34462;51.368;12.364;2023-02-15T14:50:59;9.90;99.90
15259;DHT22;34462;51.368;12.364;2023-02-15T14:53:37;9.90;99.90
15259;DHT22;34462;51.368;12.364;2023-02-15T14:56:22;9.90;99.90
15259;DHT22;34462;51.368;12.364;2023-02-15T14:59:14;9.80;99.90
15259;DHT22;34462;51.368;12.364;2023-02-15T15:01:55;9.80;99.90
15259;DHT22;34462;51.368;12.364;2023-02-15T15:04:29;9.80;99.90
15259;DHT22;34462;51.368;12.364;2023-02-15T15:07:07;9.80;99.90
15259;DHT22;34462;51.368;12.364;2023-02-15T15:09:45;9.80;99.90
15259;DHT22;34462;51.368;12.364;2023-02-15T15:12:39;9.80;99.90
15259;DHT22;34462;51.368;12.364;2023-02-15T15:15:12;9.80;99.90
15259;DHT22;34462;51.368;12.364;2023-02-15T15:17:58;9.90;99.90
15259;DHT22;34462;51.368;12.364;2023-02-15T15:20:45;9.80;99.90
15259;DHT22;34462;51.368;12.364;2023-02-15T15:23:40;9.70;99.90
15259;DHT22;34462;51.368;12.364;2023-02-15T15:26:31;9.50;99.90
15259;DHT22;34462;51.368;12.364;2023-02-15T15:29:05;9.40;99.90
15259;DHT22;34462;51.368;12.364;2023-02-15T15:31:43;9.20;99.90
15259;DHT22;34462;51.368;12.364;2023-02-15T15:34:47;9.30;99.90
15259;DHT22;34462;51.368;12.364;2023-02-15T15:38:07;9.30;99.90
15259;DHT22;34462;51.368;12.364;2023-02-15T15:41:08;9.20;99.90
15259;DHT22;34462;51.368;12.364;2023-02-15T15:44:47;9.10;99.90
15259;DHT22;34462;51.368;12.364;2023-02-15T15:47:52;9.00;99.90
15259;DHT22;34462;51.368;12.364;2023-02-15T15:50:33;8.80;99.90
15259;DHT22;34462;51.368;12.364;2023-02-15T15:53:03;8.70;99.90
15259;DHT22;34462;51.368;12.364;2023-02-15T15:55:33;8.60;99.90
15259;DHT22;34462;51.368;12.364;2023-02-15T15:58:04;8.50;99.90
15259;DHT22;34462;51.368;12.364;2023-02-15T16:00:40;8.40;99.90
15259;DHT22;34462;51.368;12.364;2023-02-15T16:03:15;8.30;99.90
15259;DHT22;34462;51.368;12.364;2023-02-15T16:05:47;8.20;99.90
15259;DHT22;34462;51.368;12.364;2023-02-15T16:08:26;8.10;99.90
15259;DHT22;34462;51.368;12.364;2023-02-15T16:10:56;8.00;99.90
15259;DHT22;34462;51.368;12.364;2023-02-15T16:13:26;7.90;99.90
15259;DHT22;34462;51.368;12.364;2023-02-15T16:15:56;7.80;99.90
15259;DHT22;34462;51.368;12.364;2023-02-15T16:18:26;7.70;99.90
15259;DHT22;34462;51.368;12.364;2023-02-15T16:20:57;7.60;99.90
15259;DHT22;34462;51.368;12.364;2023-02-15T16:23:54;7.50;99.90
15259;DHT22;34462;51.368;12.364;2023-02-15T16:29:46;7.30;99.90
15259;DHT22;34462;51.368;12.364;2023-02-15T16:32:19;7.10;99.90
15259;DHT22;34462;51.368;12.364;2023-02-15T16:34:56;7.10;99.90
15259;DHT22;34462;51.368;12.364;2023-02-15T16:37:26;7.00;99.90